Terminal Aerodrome Forecast
Issued by NWS Sioux Falls, SD

Home | Current Version | Previous Version | Graphics & Text | Print | Product List | Glossary Off
Versions: 1 2 3 4 5 6 7 8 9 10 11 12 13 14 15 16 17 18 19 20

000
FTUS43 KFSD 010533
TAFFSD
TAF
KFSD 010533Z 0106/0206 11005KT P6SM SCT014 BKN110
      TEMPO 0110/0112 6SM -SHRA BR BKN070
     FM011200 13005KT 5SM BR OVC120
     FM011600 16008KT P6SM SCT045 BKN150
     FM020000 12008KT P6SM BKN100=

USA.gov is the U.S. government's official web portal to all federal, state and local government web resources and services.